createdAt,value
2019-05-12T00:01:43.898Z,99.90
2019-05-12T00:04:14.915Z,99.90
2019-05-12T00:06:47.376Z,99.90
2019-05-12T00:09:18.810Z,99.90
2019-05-12T00:11:49.352Z,99.90
2019-05-12T00:14:19.682Z,99.90
2019-05-12T00:16:50.017Z,99.90
2019-05-12T00:19:20.355Z,99.90
2019-05-12T00:21:50.664Z,99.90
2019-05-12T00:24:21.004Z,99.90
2019-05-12T00:26:52.901Z,99.90
2019-05-12T00:29:23.338Z,99.90
2019-05-12T00:31:53.720Z,99.90
2019-05-12T00:34:24.044Z,99.90
2019-05-12T00:36:54.418Z,99.90
2019-05-12T00:39:24.754Z,99.90
2019-05-12T00:41:55.064Z,99.90
2019-05-12T00:44:25.411Z,99.90
2019-05-12T00:46:57.710Z,99.90
2019-05-12T00:49:29.302Z,99.90
2019-05-12T00:51:59.620Z,99.90
2019-05-12T00:54:29.958Z,99.90
2019-05-12T00:57:00.267Z,99.90
2019-05-12T00:59:30.649Z,99.90
2019-05-12T01:02:00.980Z,99.90
2019-05-12T01:04:31.355Z,99.90
2019-05-12T01:07:01.662Z,99.90
2019-05-12T01:09:33.072Z,99.90
2019-05-12T01:12:03.372Z,99.90
2019-05-12T01:14:33.712Z,99.90
2019-05-12T01:17:04.060Z,99.90
2019-05-12T01:19:37.458Z,99.90
2019-05-12T01:22:08.070Z,99.90
2019-05-12T01:24:38.487Z,99.90
2019-05-12T01:27:08.773Z,99.90
2019-05-12T01:29:39.112Z,99.90
2019-05-12T01:32:18.270Z,99.90
2019-05-12T01:34:48.781Z,99.90
2019-05-12T01:37:25.027Z,99.90
2019-05-12T01:39:59.799Z,99.90
2019-05-12T01:42:28.624Z,99.90
2019-05-12T01:44:59.183Z,99.90
2019-05-12T01:47:29.483Z,99.90
2019-05-12T01:49:59.848Z,99.90
2019-05-12T01:52:30.282Z,99.90
2019-05-12T01:55:00.644Z,99.90
2019-05-12T01:57:30.945Z,99.90
2019-05-12T02:00:01.300Z,99.90
2019-05-12T02:02:31.788Z,99.90
2019-05-12T02:05:07.935Z,99.90
2019-05-12T02:07:50.507Z,99.90
2019-05-12T02:10:21.751Z,99.90
2019-05-12T02:12:52.111Z,99.90
2019-05-12T02:15:22.657Z,99.90
2019-05-12T02:17:53.106Z,99.90
2019-05-12T02:20:23.948Z,99.90
2019-05-12T02:22:54.279Z,99.90
2019-05-12T02:25:24.623Z,99.90
2019-05-12T02:27:54.943Z,99.90
2019-05-12T02:30:25.409Z,99.90
2019-05-12T02:32:59.277Z,99.90
2019-05-12T02:35:27.672Z,99.90
2019-05-12T02:37:57.981Z,99.90
2019-05-12T02:40:28.354Z,99.90
2019-05-12T02:42:58.836Z,99.90
2019-05-12T02:45:29.257Z,99.90
2019-05-12T02:47:59.607Z,99.90
2019-05-12T02:50:37.392Z,99.90
2019-05-12T02:53:27.203Z,99.90
2019-05-12T02:55:58.432Z,99.90
2019-05-12T02:58:30.537Z,99.90
2019-05-12T03:01:05.106Z,99.90
2019-05-12T03:03:36.363Z,99.90
2019-05-12T03:06:06.792Z,99.90
2019-05-12T03:08:38.017Z,99.90
2019-05-12T03:11:08.404Z,99.90
2019-05-12T03:13:38.735Z,99.90
2019-05-12T03:16:09.084Z,99.90
2019-05-12T03:18:39.394Z,99.90
2019-05-12T03:21:09.723Z,99.90
2019-05-12T03:23:40.147Z,99.90
2019-05-12T03:26:10.470Z,99.90
2019-05-12T03:28:40.786Z,99.90
2019-05-12T03:31:11.129Z,99.90
2019-05-12T03:33:46.005Z,99.90
2019-05-12T03:36:17.873Z,99.90
2019-05-12T03:38:45.382Z,99.90
2019-05-12T03:41:15.733Z,99.90
2019-05-12T03:43:46.048Z,99.90
2019-05-12T03:46:16.383Z,99.90
2019-05-12T03:48:46.700Z,99.90
2019-05-12T03:51:18.112Z,99.90
2019-05-12T03:53:48.414Z,99.90
2019-05-12T03:56:18.779Z,99.90
2019-05-12T03:58:49.182Z,99.90
2019-05-12T04:01:19.568Z,99.90
2019-05-12T04:03:49.887Z,99.90
2019-05-12T04:06:20.222Z,99.90
2019-05-12T04:08:50.524Z,99.90
2019-05-12T04:11:20.883Z,99.90
2019-05-12T04:13:51.207Z,99.90
2019-05-12T04:16:24.422Z,99.90
2019-05-12T04:18:55.176Z,99.90
2019-05-12T04:21:25.718Z,99.90
2019-05-12T04:23:56.053Z,99.90
2019-05-12T04:26:26.374Z,99.90
2019-05-12T04:28:56.678Z,99.90
2019-05-12T04:31:27.024Z,99.90
2019-05-12T04:33:57.345Z,99.90
2019-05-12T04:36:27.671Z,99.90
2019-05-12T04:38:57.991Z,99.90
2019-05-12T04:41:28.317Z,99.90
2019-05-12T04:43:58.640Z,99.90
2019-05-12T04:46:29.050Z,99.90
2019-05-12T04:48:59.352Z,99.90
2019-05-12T04:51:29.728Z,99.90
2019-05-12T04:54:00.052Z,99.90
2019-05-12T04:56:30.469Z,99.90
2019-05-12T04:59:00.816Z,99.90
2019-05-12T05:01:33.701Z,99.90
2019-05-12T05:04:05.469Z,99.90
2019-05-12T05:06:35.206Z,99.90
2019-05-12T05:09:08.050Z,99.90
2019-05-12T05:11:38.386Z,99.90
2019-05-12T05:14:08.694Z,99.90
2019-05-12T05:16:39.049Z,99.90
2019-05-12T05:19:09.376Z,99.90
2019-05-12T05:21:39.721Z,99.90
2019-05-12T05:24:10.079Z,99.90
2019-05-12T05:26:40.390Z,99.90
2019-05-12T05:29:10.731Z,99.90
2019-05-12T05:31:41.036Z,99.90
2019-05-12T05:34:11.400Z,99.90
2019-05-12T05:36:43.362Z,99.90
2019-05-12T05:39:14.063Z,99.90
2019-05-12T05:41:50.749Z,99.90
2019-05-12T05:44:17.521Z,99.90
2019-05-12T05:46:50.174Z,99.90
2019-05-12T05:49:19.807Z,99.90
2019-05-12T05:51:55.125Z,99.90
2019-05-12T05:54:31.562Z,99.90
2019-05-12T05:57:01.848Z,99.90
2019-05-12T05:59:35.866Z,99.90
2019-05-12T06:02:00.843Z,99.90
2019-05-12T06:04:31.178Z,99.90
2019-05-12T06:07:03.964Z,99.90
2019-05-12T06:09:34.008Z,99.90
2019-05-12T06:12:09.688Z,99.90
2019-05-12T06:14:36.769Z,99.90
2019-05-12T06:17:07.103Z,99.90
2019-05-12T06:19:37.488Z,99.90
2019-05-12T06:22:08.945Z,99.90
2019-05-12T06:24:39.856Z,99.90
2019-05-12T06:27:16.137Z,99.90
2019-05-12T06:29:43.739Z,99.90
2019-05-12T06:32:14.234Z,99.90
2019-05-12T06:34:44.655Z,99.90
2019-05-12T06:37:17.089Z,99.90
2019-05-12T06:39:51.043Z,99.90
2019-05-12T06:42:18.887Z,99.90
2019-05-12T06:44:55.079Z,99.90
2019-05-12T06:47:21.202Z,99.90
2019-05-12T06:49:54.937Z,99.90
2019-05-12T06:52:23.801Z,99.90
2019-05-12T06:54:56.565Z,99.90
2019-05-12T06:57:28.764Z,99.90
2019-05-12T06:59:58.141Z,99.90
2019-05-12T07:02:30.177Z,99.90
2019-05-12T07:05:01.059Z,99.90
2019-05-12T07:07:41.715Z,99.90
2019-05-12T07:10:11.506Z,99.90
2019-05-12T07:12:54.139Z,99.90
2019-05-12T07:15:11.170Z,98.00
2019-05-12T07:17:55.824Z,97.90
2019-05-12T07:20:34.598Z,98.30
2019-05-12T07:22:57.534Z,97.30
2019-05-12T07:25:31.050Z,96.50
2019-05-12T07:28:01.531Z,97.10
2019-05-12T07:30:35.107Z,95.40
2019-05-12T07:33:05.025Z,93.00
2019-05-12T07:35:35.565Z,92.80
2019-05-12T07:38:05.978Z,92.70
2019-05-12T07:40:37.916Z,93.80
2019-05-12T07:43:15.468Z,94.20
2019-05-12T07:45:45.065Z,93.30
2019-05-12T07:48:15.405Z,93.10
2019-05-12T07:50:50.278Z,93.30
2019-05-12T07:53:18.832Z,92.90
2019-05-12T07:55:49.578Z,91.00
2019-05-12T07:58:20.057Z,89.40
2019-05-12T08:00:56.261Z,89.30
2019-05-12T08:03:24.300Z,90.60
2019-05-12T08:05:57.499Z,90.90
2019-05-12T08:08:26.237Z,91.50
2019-05-12T08:10:56.575Z,91.20
2019-05-12T08:13:31.298Z,91.00
2019-05-12T08:15:59.901Z,91.20
2019-05-12T08:18:30.839Z,91.90
2019-05-12T08:21:03.802Z,92.20
2019-05-12T08:23:37.453Z,92.90
2019-05-12T08:26:12.429Z,91.90
2019-05-12T08:28:40.482Z,91.90
2019-05-12T08:31:10.995Z,91.20
2019-05-12T08:33:43.461Z,91.70
2019-05-12T08:36:16.267Z,91.10
2019-05-12T08:38:45.283Z,90.20
2019-05-12T08:41:15.627Z,90.40
2019-05-12T08:43:51.391Z,87.80
2019-05-12T08:46:19.048Z,88.10
2019-05-12T08:48:51.421Z,84.90
2019-05-12T08:51:21.309Z,85.20
2019-05-12T08:53:56.192Z,86.10
2019-05-12T08:56:26.118Z,85.20
2019-05-12T08:58:55.561Z,85.90
2019-05-12T09:01:30.607Z,86.00
2019-05-12T09:04:00.357Z,87.10
2019-05-12T09:06:30.976Z,85.90
2019-05-12T09:09:03.508Z,81.60
2019-05-12T09:11:33.735Z,80.60
2019-05-12T09:14:05.877Z,81.20
2019-05-12T09:16:37.456Z,80.60
2019-05-12T09:19:10.246Z,79.30
2019-05-12T09:21:39.758Z,80.90
2019-05-12T09:24:13.627Z,80.00
2019-05-12T09:26:43.798Z,76.80
2019-05-12T09:29:14.101Z,78.00
2019-05-12T09:31:45.265Z,78.60
2019-05-12T09:34:16.553Z,78.00
2019-05-12T09:36:53.749Z,77.40
2019-05-12T09:39:18.983Z,73.60
2019-05-12T09:41:52.606Z,75.00
2019-05-12T09:44:26.500Z,73.40
2019-05-12T09:46:53.539Z,76.20
2019-05-12T09:49:30.967Z,74.60
2019-05-12T09:51:59.231Z,73.90
2019-05-12T09:54:40.036Z,70.20
2019-05-12T09:57:05.094Z,73.50
2019-05-12T09:59:35.464Z,69.10
2019-05-12T10:02:10.460Z,69.10
2019-05-12T10:04:37.858Z,65.70
2019-05-12T10:07:08.190Z,66.50
2019-05-12T10:09:38.497Z,63.00
2019-05-12T10:12:08.829Z,61.20
2019-05-12T10:14:40.841Z,61.20
2019-05-12T10:17:11.128Z,61.20
2019-05-12T10:19:43.280Z,62.10
2019-05-12T10:22:13.818Z,59.90
2019-05-12T10:24:55.255Z,60.50
2019-05-12T10:27:16.107Z,60.70
2019-05-12T10:29:46.554Z,58.50
2019-05-12T10:32:16.902Z,57.60
2019-05-12T10:34:47.222Z,60.30
2019-05-12T10:37:19.331Z,59.70
2019-05-12T10:39:49.611Z,57.70
2019-05-12T10:42:20.039Z,56.00
2019-05-12T10:44:53.407Z,56.00
2019-05-12T10:47:23.941Z,57.90
2019-05-12T10:49:54.316Z,58.30
2019-05-12T10:52:29.379Z,58.20
2019-05-12T10:54:56.779Z,57.50
2019-05-12T10:57:27.142Z,56.70
2019-05-12T10:59:57.458Z,55.20
2019-05-12T11:02:30.434Z,53.50
2019-05-12T11:05:00.414Z,53.20
2019-05-12T11:07:33.698Z,53.00
2019-05-12T11:10:15.394Z,54.60
2019-05-12T11:12:35.896Z,54.60
2019-05-12T11:15:08.199Z,52.00
2019-05-12T11:17:57.425Z,53.00
2019-05-12T11:20:27.758Z,52.70
2019-05-12T11:22:58.109Z,52.30
2019-05-12T11:25:28.495Z,52.50
2019-05-12T11:27:58.918Z,52.70
2019-05-12T11:30:30.304Z,51.20
2019-05-12T11:33:00.655Z,52.30
2019-05-12T11:35:32.040Z,47.50
2019-05-12T11:38:04.576Z,46.80
2019-05-12T11:40:34.876Z,46.20
2019-05-12T11:43:05.416Z,43.50
2019-05-12T11:45:35.728Z,43.10
2019-05-12T11:48:10.255Z,45.20
2019-05-12T11:50:40.544Z,45.40
2019-05-12T11:53:10.094Z,45.40
2019-05-12T11:55:40.435Z,43.20
2019-05-12T11:58:11.697Z,41.50
2019-05-12T12:00:44.602Z,39.70
2019-05-12T12:03:18.003Z,39.60
2019-05-12T12:05:46.918Z,37.20
2019-05-12T12:08:17.278Z,36.20
2019-05-12T12:10:49.320Z,35.60
2019-05-12T12:13:25.569Z,35.60
2019-05-12T12:15:51.463Z,35.90
2019-05-12T12:18:23.493Z,34.90
2019-05-12T12:21:02.321Z,34.90
2019-05-12T12:23:26.015Z,34.50
2019-05-12T12:25:56.342Z,33.80
2019-05-12T12:28:26.676Z,34.40
2019-05-12T12:31:00.351Z,35.00
2019-05-12T12:33:30.970Z,34.80
2019-05-12T12:36:00.982Z,33.00
2019-05-12T12:38:33.457Z,33.50
2019-05-12T12:41:03.950Z,32.20
2019-05-12T12:43:34.328Z,32.80
2019-05-12T12:46:10.617Z,32.10
2019-05-12T12:48:43.819Z,31.90
2019-05-12T12:51:17.332Z,31.80
2019-05-12T12:53:45.463Z,30.70
2019-05-12T12:56:24.336Z,31.00
2019-05-12T12:58:47.783Z,31.10
2019-05-12T13:01:23.219Z,30.70
2019-05-12T13:03:50.143Z,30.60
2019-05-12T13:06:23.493Z,30.00
2019-05-12T13:08:54.143Z,29.90
2019-05-12T13:11:33.145Z,29.10
2019-05-12T13:13:56.590Z,28.20
2019-05-12T13:16:26.907Z,28.60
2019-05-12T13:18:57.258Z,28.40
2019-05-12T13:21:27.552Z,28.60
2019-05-12T13:23:57.900Z,28.10
2019-05-12T13:26:28.195Z,27.90
2019-05-12T13:28:58.538Z,27.30
2019-05-12T13:31:28.852Z,27.20
2019-05-12T13:33:59.231Z,27.20
2019-05-12T13:36:34.590Z,27.90
2019-05-12T13:39:02.138Z,27.90
2019-05-12T13:41:32.519Z,28.40
2019-05-12T13:44:03.912Z,28.60
2019-05-12T13:46:34.531Z,28.50
2019-05-12T13:49:04.929Z,27.90
2019-05-12T13:51:35.309Z,27.70
2019-05-12T13:54:06.736Z,27.80
2019-05-12T13:56:37.061Z,27.20
2019-05-12T13:59:11.988Z,26.50
2019-05-12T14:01:40.497Z,26.90
2019-05-12T14:04:13.940Z,26.60
2019-05-12T14:06:44.402Z,26.40
2019-05-12T14:09:14.759Z,26.00
2019-05-12T14:11:45.076Z,26.70
2019-05-12T14:14:15.771Z,27.00
2019-05-12T14:16:57.016Z,26.70
2019-05-12T14:19:19.742Z,26.60
2019-05-12T14:21:54.135Z,26.10
2019-05-12T14:24:24.483Z,25.90
2019-05-12T14:26:54.833Z,25.90
2019-05-12T14:29:26.634Z,26.30
2019-05-12T14:32:02.464Z,26.40
2019-05-12T14:34:29.322Z,25.90
2019-05-12T14:37:08.372Z,26.90
2019-05-12T14:39:31.636Z,25.90
2019-05-12T14:42:04.228Z,26.00
2019-05-12T14:44:35.925Z,25.90
2019-05-12T14:47:06.107Z,26.20
2019-05-12T14:49:36.448Z,25.10
2019-05-12T14:52:06.769Z,25.30
2019-05-12T14:54:37.136Z,24.40
2019-05-12T14:57:07.460Z,23.90
2019-05-12T14:59:41.109Z,23.30
2019-05-12T15:02:09.792Z,23.10
2019-05-12T15:04:40.170Z,23.30
2019-05-12T15:07:10.557Z,23.20
2019-05-12T15:09:41.103Z,23.30
2019-05-12T15:12:13.875Z,23.20
2019-05-12T15:14:43.856Z,23.60
2019-05-12T15:17:22.396Z,23.60
2019-05-12T15:19:46.262Z,23.10
2019-05-12T15:22:16.588Z,23.30
2019-05-12T15:24:49.234Z,23.10
2019-05-12T15:27:19.007Z,24.00
2019-05-12T15:29:49.906Z,23.00
2019-05-12T15:32:23.523Z,22.80
2019-05-12T15:34:53.297Z,22.40
2019-05-12T15:37:23.860Z,23.00
2019-05-12T15:39:55.288Z,22.50
2019-05-12T15:42:25.627Z,22.60
2019-05-12T15:44:56.107Z,22.10
2019-05-12T15:47:29.492Z,22.10
2019-05-12T15:49:58.455Z,21.40
2019-05-12T15:52:29.837Z,21.80
2019-05-12T15:55:00.779Z,21.70
2019-05-12T15:57:33.353Z,21.90
2019-05-12T16:00:04.986Z,21.70
2019-05-12T16:02:36.072Z,21.50
2019-05-12T16:05:06.631Z,21.60
2019-05-12T16:07:39.541Z,22.00
2019-05-12T16:10:09.358Z,22.20
2019-05-12T16:12:39.674Z,22.10
2019-05-12T16:15:17.090Z,22.20
2019-05-12T16:17:45.110Z,22.10
2019-05-12T16:20:15.469Z,22.60
2019-05-12T16:22:45.812Z,21.90
2019-05-12T16:25:20.809Z,21.90
2019-05-12T16:27:49.554Z,22.10
2019-05-12T16:30:26.044Z,22.20
2019-05-12T16:32:55.040Z,21.90
2019-05-12T16:35:26.453Z,21.40
2019-05-12T16:37:58.921Z,21.80
2019-05-12T16:40:30.215Z,21.90
2019-05-12T16:43:00.524Z,21.90
2019-05-12T16:45:30.863Z,22.10
2019-05-12T16:48:05.494Z,21.70
2019-05-12T16:50:36.136Z,21.60
2019-05-12T16:53:06.480Z,22.30
2019-05-12T16:55:44.841Z,22.10
2019-05-12T16:58:08.910Z,22.60
2019-05-12T17:00:39.703Z,23.00
2019-05-12T17:03:11.355Z,23.50
2019-05-12T17:05:42.656Z,22.60
2019-05-12T17:08:13.832Z,23.00
2019-05-12T17:10:49.686Z,23.00
2019-05-12T17:13:16.518Z,22.60
2019-05-12T17:15:48.687Z,23.10
2019-05-12T17:18:19.895Z,23.30
2019-05-12T17:20:51.112Z,23.00
2019-05-12T17:23:21.683Z,22.90
2019-05-12T17:25:52.084Z,22.70
2019-05-12T17:28:23.865Z,23.00
2019-05-12T17:30:54.637Z,23.00
2019-05-12T17:33:27.639Z,22.90
2019-05-12T17:36:05.025Z,23.00
2019-05-12T17:38:31.379Z,23.40
2019-05-12T17:41:03.752Z,23.30
2019-05-12T17:43:33.920Z,23.30
2019-05-12T17:46:05.468Z,23.60
2019-05-12T17:48:37.174Z,23.90
2019-05-12T17:51:09.383Z,24.40
2019-05-12T17:53:39.744Z,24.70
2019-05-12T17:56:10.449Z,24.90
2019-05-12T17:58:46.740Z,24.90
2019-05-12T18:01:14.311Z,25.10
2019-05-12T18:03:50.485Z,25.20
2019-05-12T18:06:20.358Z,25.20
2019-05-12T18:08:48.865Z,25.50
2019-05-12T18:11:19.210Z,25.60
2019-05-12T18:13:49.519Z,25.70
2019-05-12T18:16:22.066Z,25.90
2019-05-12T18:18:55.791Z,26.20
2019-05-12T18:22:14.282Z,26.50
2019-05-12T18:28:39.020Z,27.20
2019-05-12T18:31:09.382Z,27.60
2019-05-12T18:33:48.982Z,28.00
2019-05-12T18:36:14.188Z,29.00
2019-05-12T18:38:44.663Z,29.30
2019-05-12T18:41:18.300Z,30.30
2019-05-12T18:43:48.702Z,31.00
2019-05-12T18:46:19.063Z,32.60
2019-05-12T18:48:54.210Z,33.60
2019-05-12T18:51:23.764Z,34.30
2019-05-12T18:53:56.031Z,35.20
2019-05-12T18:56:26.014Z,36.00
2019-05-12T18:58:56.427Z,36.80
2019-05-12T19:01:26.780Z,37.10
2019-05-12T19:03:57.098Z,38.00
2019-05-12T19:06:27.537Z,39.20
2019-05-12T19:08:58.337Z,38.90
2019-05-12T19:11:37.447Z,39.50
2019-05-12T19:14:00.742Z,40.10
2019-05-12T19:16:31.163Z,42.00
2019-05-12T19:19:01.570Z,41.90
2019-05-12T19:21:32.107Z,42.10
2019-05-12T19:24:03.553Z,42.00
2019-05-12T19:26:38.288Z,42.10
2019-05-12T19:29:06.069Z,42.60
2019-05-12T19:31:36.698Z,43.10
2019-05-12T19:34:18.759Z,43.50
2019-05-12T19:36:44.839Z,44.60
2019-05-12T19:39:11.109Z,45.00
2019-05-12T19:41:43.463Z,45.70
2019-05-12T19:44:20.018Z,45.90
2019-05-12T19:46:49.451Z,46.20
2019-05-12T19:49:20.074Z,46.80
2019-05-12T19:51:54.395Z,47.60
2019-05-12T19:54:29.489Z,48.30
2019-05-12T19:56:56.563Z,49.60
2019-05-12T19:59:27.851Z,48.70
2019-05-12T20:01:58.235Z,48.90
2019-05-12T20:04:33.266Z,49.60
2019-05-12T20:07:00.487Z,49.80
2019-05-12T20:09:30.819Z,50.60
2019-05-12T20:12:06.793Z,50.70
2019-05-12T20:14:34.387Z,52.30
2019-05-12T20:17:04.982Z,52.50
2019-05-12T20:19:35.302Z,53.30
2019-05-12T20:22:05.693Z,53.40
2019-05-12T20:24:36.034Z,53.00
2019-05-12T20:27:10.706Z,53.40
2019-05-12T20:29:38.851Z,55.30
2019-05-12T20:32:09.138Z,54.90
2019-05-12T20:34:49.283Z,55.10
2019-05-12T20:37:14.264Z,55.50
2019-05-12T20:39:44.593Z,55.90
2019-05-12T20:42:15.896Z,55.90
2019-05-12T20:44:46.249Z,56.50
2019-05-12T20:47:39.082Z,56.80
2019-05-12T20:50:09.167Z,57.30
2019-05-12T20:52:45.063Z,58.30
2019-05-12T20:55:14.215Z,59.30
2019-05-12T20:57:50.205Z,61.30
2019-05-12T21:00:16.961Z,61.50
2019-05-12T21:02:47.292Z,62.60
2019-05-12T21:05:20.072Z,65.40
2019-05-12T21:07:49.574Z,65.40
2019-05-12T21:10:24.994Z,66.60
2019-05-12T21:12:54.148Z,66.70
2019-05-12T21:15:29.369Z,67.70
2019-05-12T21:18:02.496Z,69.50
2019-05-12T21:20:28.656Z,70.10
2019-05-12T21:22:59.067Z,70.50
2019-05-12T21:25:29.367Z,71.20
2019-05-12T21:28:02.614Z,71.30
2019-05-12T21:30:33.779Z,71.70
2019-05-12T21:33:04.942Z,71.80
2019-05-12T21:35:40.697Z,72.70
2019-05-12T21:38:07.524Z,73.20
2019-05-12T21:40:37.819Z,73.20
2019-05-12T21:43:08.154Z,73.60
2019-05-12T21:45:38.454Z,73.50
2019-05-12T21:48:08.787Z,73.40
2019-05-12T21:50:39.386Z,73.70
2019-05-12T21:53:10.281Z,73.90
2019-05-12T21:55:44.225Z,74.50
2019-05-12T21:58:15.246Z,75.60
2019-05-12T22:00:50.546Z,74.80
2019-05-12T22:03:21.330Z,74.90
2019-05-12T22:05:55.351Z,74.70
2019-05-12T22:08:25.526Z,76.10
2019-05-12T22:11:00.788Z,76.40
2019-05-12T22:13:27.954Z,76.00
2019-05-12T22:15:59.086Z,77.10
2019-05-12T22:18:29.599Z,76.60
2019-05-12T22:21:03.235Z,76.40
2019-05-12T22:23:33.765Z,76.70
2019-05-12T22:26:04.343Z,77.70
2019-05-12T22:28:40.429Z,78.10
2019-05-12T22:31:09.570Z,78.50
2019-05-12T22:33:49.853Z,77.70
2019-05-12T22:36:20.877Z,79.20
2019-05-12T22:38:45.810Z,79.10
2019-05-12T22:41:16.089Z,79.80
2019-05-12T22:43:46.411Z,80.10
2019-05-12T22:46:23.248Z,80.40
2019-05-12T22:48:48.687Z,81.00
2019-05-12T22:51:24.520Z,81.50
2019-05-12T22:53:53.909Z,81.10
2019-05-12T22:56:24.289Z,81.30
2019-05-12T22:59:00.066Z,82.30
2019-05-12T23:01:26.539Z,82.60
2019-05-12T23:03:56.930Z,83.10
2019-05-12T23:06:27.624Z,83.10
2019-05-12T23:08:58.118Z,83.20
2019-05-12T23:11:31.929Z,83.60
2019-05-12T23:14:00.367Z,83.80
2019-05-12T23:16:30.678Z,84.50
2019-05-12T23:19:01.537Z,84.60
2019-05-12T23:21:32.978Z,84.40
2019-05-12T23:24:03.772Z,84.40
2019-05-12T23:26:41.903Z,84.40
2019-05-12T23:29:06.124Z,85.10
2019-05-12T23:31:36.411Z,85.10
2019-05-12T23:34:12.161Z,85.10
2019-05-12T23:36:39.311Z,84.70
2019-05-12T23:39:09.863Z,85.00
2019-05-12T23:41:40.206Z,84.40
2019-05-12T23:44:10.557Z,84.00
2019-05-12T23:46:43.581Z,84.00
2019-05-12T23:49:14.366Z,84.00
2019-05-12T23:51:44.897Z,83.70
2019-05-12T23:54:15.250Z,83.70
2019-05-12T23:56:45.598Z,83.60
2019-05-12T23:59:15.917Z,84.00
